createdAt,value
2019-01-24T00:00:27.648Z,1.84
2019-01-24T00:01:37.707Z,1.9
2019-01-24T00:02:47.768Z,1.92
2019-01-24T00:03:57.830Z,1.87
2019-01-24T00:05:08.040Z,1.84
2019-01-24T00:06:17.817Z,1.84
2019-01-24T00:07:27.859Z,1.92
2019-01-24T00:08:37.964Z,1.87
2019-01-24T00:09:48.011Z,1.92
2019-01-24T00:10:58.129Z,1.87
2019-01-24T00:12:09.540Z,1.84
2019-01-24T00:13:19.590Z,1.84
2019-01-24T00:14:29.696Z,1.84
2019-01-24T00:15:39.733Z,1.82
2019-01-24T00:16:49.823Z,1.87
2019-01-24T00:17:59.874Z,1.92
2019-01-24T00:19:09.669Z,1.84
2019-01-24T00:20:19.495Z,1.83
2019-01-24T00:21:29.545Z,1.9
2019-01-24T00:22:39.643Z,1.86
2019-01-24T00:23:49.453Z,1.86
2019-01-24T00:24:59.507Z,1.89
2019-01-24T00:26:09.948Z,1.9
2019-01-24T00:27:20.013Z,1.93
2019-01-24T00:28:30.048Z,1.94
2019-01-24T00:29:40.102Z,1.93
2019-01-24T00:30:49.646Z,1.83
2019-01-24T00:31:59.426Z,1.87
2019-01-24T00:33:11.273Z,1.86
2019-01-24T00:34:25.601Z,1.89
2019-01-24T00:35:35.641Z,1.83
2019-01-24T00:36:45.434Z,1.78
2019-01-24T00:37:55.479Z,1.89
2019-01-24T00:39:08.062Z,1.87
2019-01-24T00:40:17.854Z,1.82
2019-01-24T00:41:27.889Z,1.83
2019-01-24T00:42:37.938Z,1.79
2019-01-24T00:43:47.995Z,1.87
2019-01-24T00:44:58.040Z,1.83
2019-01-24T00:46:09.036Z,1.86
2019-01-24T00:47:18.808Z,1.89
2019-01-24T00:48:28.593Z,1.82
2019-01-24T00:49:38.673Z,1.79
2019-01-24T00:50:48.710Z,1.84
2019-01-24T00:51:58.527Z,1.72
2019-01-24T00:53:08.418Z,1.76
2019-01-24T00:54:18.215Z,1.86
2019-01-24T00:55:28.250Z,1.78
2019-01-24T00:56:38.027Z,1.83
2019-01-24T00:57:48.226Z,1.76
2019-01-24T00:58:58.250Z,1.72
2019-01-24T01:00:08.729Z,1.76
2019-01-24T01:01:18.977Z,1.75
2019-01-24T01:02:28.781Z,1.74
2019-01-24T01:03:38.887Z,1.75
2019-01-24T01:04:48.680Z,1.82
2019-01-24T01:05:58.470Z,1.78
2019-01-24T01:07:08.530Z,1.84
2019-01-24T01:08:18.324Z,1.82
2019-01-24T01:09:28.389Z,1.79
2019-01-24T01:10:38.448Z,1.86
2019-01-24T01:11:48.481Z,1.78
2019-01-24T01:12:58.531Z,1.83
2019-01-24T01:14:08.314Z,1.84
2019-01-24T01:15:18.349Z,1.89
2019-01-24T01:16:28.137Z,1.83
2019-01-24T01:17:38.178Z,1.82
2019-01-24T01:18:47.971Z,1.82
2019-01-24T01:19:58.016Z,1.83
2019-01-24T01:21:09.087Z,1.87
2019-01-24T01:22:19.119Z,1.83
2019-01-24T01:23:30.342Z,1.86
2019-01-24T01:24:40.364Z,1.79
2019-01-24T01:25:50.406Z,1.79
2019-01-24T01:27:01.351Z,1.76
2019-01-24T01:28:11.128Z,1.84
2019-01-24T01:29:21.176Z,1.86
2019-01-24T01:30:31.002Z,1.83
2019-01-24T01:31:41.068Z,1.79
2019-01-24T01:32:51.103Z,1.79
2019-01-24T01:34:01.137Z,1.82
2019-01-24T01:35:10.919Z,1.78
2019-01-24T01:36:20.715Z,1.78
2019-01-24T01:37:30.796Z,1.83
2019-01-24T01:38:40.854Z,1.75
2019-01-24T01:39:50.647Z,1.75
2019-01-24T01:41:00.695Z,1.75
2019-01-24T01:42:10.473Z,1.74
2019-01-24T01:43:20.265Z,1.74
2019-01-24T01:44:30.372Z,1.79
2019-01-24T01:45:40.157Z,1.83
2019-01-24T01:46:49.936Z,1.79
2019-01-24T01:47:59.457Z,1.79
2019-01-24T01:49:09.515Z,1.86
2019-01-24T01:50:19.597Z,1.86
2019-01-24T01:51:29.387Z,1.82
2019-01-24T01:52:39.480Z,1.84
2019-01-24T01:53:49.526Z,1.87
2019-01-24T01:54:59.550Z,1.92
2019-01-24T01:56:09.698Z,1.92
2019-01-24T01:57:19.472Z,1.93
2019-01-24T01:58:29.512Z,2.02
2019-01-24T01:59:39.292Z,1.94
2019-01-24T02:00:49.331Z,1.89
2019-01-24T02:01:59.379Z,1.92
2019-01-24T02:03:09.514Z,1.89
2019-01-24T02:04:19.565Z,1.79
2019-01-24T02:05:29.602Z,1.82
2019-01-24T02:06:39.639Z,1.76
2019-01-24T02:07:49.685Z,1.79
2019-01-24T02:08:59.214Z,1.76
2019-01-24T02:10:08.985Z,1.79
2019-01-24T02:11:19.084Z,1.78
2019-01-24T02:12:29.130Z,1.87
2019-01-24T02:13:39.166Z,1.79
2019-01-24T02:14:49.212Z,1.79
2019-01-24T02:15:59.257Z,1.82
2019-01-24T02:17:09.336Z,1.79
2019-01-24T02:18:19.374Z,1.84
2019-01-24T02:19:29.422Z,1.83
2019-01-24T02:20:39.483Z,1.83
2019-01-24T02:21:49.526Z,1.83
2019-01-24T02:22:59.577Z,1.79
2019-01-24T02:24:09.615Z,1.83
2019-01-24T02:25:19.666Z,1.82
2019-01-24T02:26:29.704Z,1.84
2019-01-24T02:27:39.491Z,1.9
2019-01-24T02:28:49.606Z,1.82
2019-01-24T02:29:59.398Z,1.83
2019-01-24T02:31:09.447Z,1.89
2019-01-24T02:32:19.476Z,1.89
2019-01-24T02:33:29.529Z,1.87
2019-01-24T02:34:39.060Z,1.94
2019-01-24T02:35:54.698Z,1.84
2019-01-24T02:37:04.483Z,1.9
2019-01-24T02:38:14.522Z,1.92
2019-01-24T02:39:24.568Z,1.94
2019-01-24T02:40:34.613Z,1.87
2019-01-24T02:41:44.660Z,1.83
2019-01-24T02:42:54.217Z,1.87
2019-01-24T02:44:04.254Z,1.83
2019-01-24T02:45:14.292Z,1.87
2019-01-24T02:46:24.421Z,1.89
2019-01-24T02:47:33.959Z,1.82
2019-01-24T02:48:43.997Z,1.86
2019-01-24T02:49:54.080Z,1.87
2019-01-24T02:51:03.623Z,1.79
2019-01-24T02:52:13.740Z,1.72
2019-01-24T02:53:23.780Z,1.78
2019-01-24T02:54:33.320Z,1.76
2019-01-24T02:55:42.851Z,1.74
2019-01-24T02:56:52.637Z,1.79
2019-01-24T02:58:02.681Z,1.78
2019-01-24T02:59:12.741Z,1.76
2019-01-24T03:00:22.836Z,1.78
2019-01-24T03:01:32.617Z,1.78
2019-01-24T03:02:42.415Z,1.79
2019-01-24T03:35:06.502Z,-0.36
2019-01-24T03:36:16.031Z,-0.45
2019-01-24T03:37:26.114Z,-0.37
2019-01-24T03:38:36.152Z,-0.4
2019-01-24T03:39:46.204Z,-0.3
2019-01-24T03:40:56.277Z,-0.22
2019-01-24T03:42:08.554Z,-0.2
2019-01-24T03:43:18.583Z,-0.19
2019-01-24T03:44:28.622Z,0.05
2019-01-24T03:45:38.154Z,0.08
2019-01-24T03:46:48.199Z,0.14
2019-01-24T03:47:58.242Z,0.27
2019-01-24T03:49:08.056Z,0.47
2019-01-24T03:50:19.426Z,0.52
2019-01-24T03:51:29.221Z,0.58
2019-01-24T03:52:39.272Z,0.69
2019-01-24T03:53:49.310Z,0.82
2019-01-24T03:54:59.351Z,0.85
2019-01-24T03:56:09.126Z,0.99
2019-01-24T03:57:19.154Z,1.17
2019-01-24T03:58:29.241Z,1.14
2019-01-24T03:59:39.284Z,1.26
2019-01-24T04:00:49.344Z,1.22
2019-01-24T04:01:59.132Z,1.35
2019-01-24T04:03:08.648Z,1.36
2019-01-24T04:04:18.184Z,1.33
2019-01-24T04:05:27.988Z,1.4
2019-01-24T04:06:38.035Z,1.42
2019-01-24T04:07:48.156Z,1.53
2019-01-24T04:08:58.226Z,1.53
2019-01-24T04:10:10.878Z,1.44
2019-01-24T04:11:20.943Z,1.47
2019-01-24T04:12:30.972Z,1.47
2019-01-24T04:13:40.776Z,1.44
2019-01-24T04:14:50.560Z,1.39
2019-01-24T04:16:00.392Z,1.48
2019-01-24T04:17:10.169Z,1.56
2019-01-24T04:18:19.966Z,1.54
2019-01-24T04:19:30.018Z,1.4
2019-01-24T04:20:40.095Z,1.51
2019-01-24T04:21:50.129Z,1.47
2019-01-24T04:22:59.912Z,1.51
2019-01-24T04:24:09.982Z,1.53
2019-01-24T04:25:20.021Z,1.48
2019-01-24T04:26:30.053Z,1.46
2019-01-24T04:27:39.950Z,1.51
2019-01-24T04:28:50.035Z,1.48
2019-01-24T04:30:03.435Z,1.46
2019-01-24T04:31:13.488Z,1.42
2019-01-24T04:32:23.552Z,1.44
2019-01-24T04:33:33.594Z,1.53
2019-01-24T04:34:43.380Z,1.46
2019-01-24T04:35:53.171Z,1.42
2019-01-24T04:37:03.943Z,1.44
2019-01-24T04:38:13.989Z,1.48
2019-01-24T04:39:23.877Z,1.47
2019-01-24T04:40:33.668Z,1.46
2019-01-24T04:41:43.715Z,1.48
2019-01-24T04:42:53.502Z,1.47
2019-01-24T04:44:03.290Z,1.46
2019-01-24T04:45:13.467Z,1.56
2019-01-24T04:46:23.517Z,1.54
2019-01-24T04:47:33.581Z,1.57
2019-01-24T04:48:43.628Z,1.6
2019-01-24T04:49:53.682Z,1.61
2019-01-24T04:51:03.717Z,1.57
2019-01-24T04:52:13.262Z,1.54
2019-01-24T04:53:23.306Z,1.44
2019-01-24T04:54:33.094Z,1.53
2019-01-24T04:55:43.140Z,1.5
2019-01-24T04:56:53.200Z,1.6
2019-01-24T04:58:05.497Z,1.58
2019-01-24T04:59:15.327Z,1.66
2019-01-24T05:00:25.327Z,1.56
2019-01-24T05:01:35.414Z,1.68
2019-01-24T05:02:45.452Z,1.74
2019-01-24T05:03:55.497Z,1.71
2019-01-24T05:05:05.583Z,1.72
2019-01-24T05:06:15.619Z,1.68
2019-01-24T05:07:25.674Z,1.69
2019-01-24T05:08:35.730Z,1.71
2019-01-24T05:09:45.763Z,1.74
2019-01-24T05:10:55.847Z,1.71
2019-01-24T05:12:05.931Z,1.75
2019-01-24T05:13:15.987Z,1.74
2019-01-24T05:14:26.089Z,1.64
2019-01-24T05:15:35.905Z,1.66
2019-01-24T05:16:45.705Z,1.66
2019-01-24T05:17:55.552Z,1.69
2019-01-24T05:19:05.881Z,1.65
2019-01-24T05:20:15.713Z,1.72
2019-01-24T05:21:25.543Z,1.72
2019-01-24T05:22:35.592Z,1.71
2019-01-24T05:23:45.631Z,1.68
2019-01-24T05:24:55.688Z,1.75
2019-01-24T05:26:06.240Z,1.82
2019-01-24T05:27:16.278Z,1.72
2019-01-24T05:28:26.069Z,1.84
2019-01-24T05:29:36.133Z,1.79
2019-01-24T05:30:45.936Z,1.69
2019-01-24T05:31:56.036Z,1.71
2019-01-24T05:33:07.769Z,1.68
2019-01-24T05:34:17.833Z,1.79
2019-01-24T05:35:34.439Z,1.66
2019-01-24T05:36:44.723Z,1.6
2019-01-24T05:37:54.809Z,1.69
2019-01-24T05:39:04.588Z,1.65
2019-01-24T05:40:14.389Z,1.61
2019-01-24T05:41:24.519Z,1.6
2019-01-24T05:42:34.580Z,1.61
2019-01-24T05:43:44.731Z,1.57
2019-01-24T05:44:54.780Z,1.66
2019-01-24T05:46:04.583Z,1.61
2019-01-24T05:47:14.621Z,1.64
2019-01-24T05:48:24.690Z,1.61
2019-01-24T05:49:34.804Z,1.6
2019-01-24T05:50:44.598Z,1.58
2019-01-24T05:51:54.681Z,1.58
2019-01-24T05:53:04.747Z,1.57
2019-01-24T05:54:14.811Z,1.74
2019-01-24T05:55:24.657Z,1.74
2019-01-24T05:56:34.736Z,1.71
2019-01-24T05:57:44.577Z,1.72
2019-01-24T05:58:54.611Z,1.71
2019-01-24T06:00:04.505Z,1.6
2019-01-24T06:01:14.542Z,1.54
2019-01-24T06:02:24.672Z,1.66
2019-01-24T06:03:34.461Z,1.66
2019-01-24T06:04:44.516Z,1.69
2019-01-24T06:05:54.563Z,1.75
2019-01-24T06:07:06.129Z,1.82
2019-01-24T06:08:16.182Z,1.89
2019-01-24T06:09:26.083Z,1.83
2019-01-24T06:10:35.910Z,1.83
2019-01-24T06:11:45.700Z,1.82
2019-01-24T06:12:55.792Z,1.87
2019-01-24T06:14:05.859Z,1.75
2019-01-24T06:15:15.900Z,1.71
2019-01-24T06:16:25.952Z,1.74
2019-01-24T06:17:35.728Z,1.71
2019-01-24T06:18:45.773Z,1.79
2019-01-24T06:19:55.842Z,1.66
2019-01-24T06:21:05.963Z,1.82
2019-01-24T06:22:15.531Z,1.71
2019-01-24T06:23:25.338Z,1.75
2019-01-24T06:24:35.443Z,1.86
2019-01-24T06:25:45.499Z,1.82
2019-01-24T06:26:55.289Z,1.68
2019-01-24T06:28:05.934Z,1.79
2019-01-24T06:29:15.709Z,1.86
2019-01-24T06:30:26.111Z,1.79
2019-01-24T06:31:35.890Z,1.74
2019-01-24T06:32:45.947Z,1.76
2019-01-24T06:33:55.988Z,1.66
2019-01-24T06:35:06.066Z,1.68
2019-01-24T06:36:16.126Z,1.74
2019-01-24T06:37:26.182Z,1.71
2019-01-24T06:38:36.016Z,1.68
2019-01-24T06:39:46.063Z,1.74
2019-01-24T06:40:56.090Z,1.74
2019-01-24T06:42:07.282Z,1.68
2019-01-24T06:43:17.307Z,1.57
2019-01-24T06:44:27.085Z,1.61
2019-01-24T06:45:37.124Z,1.57
2019-01-24T06:46:47.158Z,1.44
2019-01-24T06:47:57.194Z,1.47
2019-01-24T06:49:07.231Z,1.44
2019-01-24T06:50:16.763Z,1.46
2019-01-24T06:51:26.822Z,1.47
2019-01-24T06:52:36.601Z,1.47
2019-01-24T06:53:46.429Z,1.6
2019-01-24T06:54:55.979Z,1.6
2019-01-24T06:56:05.782Z,1.6
2019-01-24T06:57:15.816Z,1.65
2019-01-24T06:58:25.862Z,1.64
2019-01-24T06:59:35.907Z,1.69
2019-01-24T07:00:46.528Z,1.58
2019-01-24T07:01:56.571Z,1.68
2019-01-24T07:03:06.608Z,1.6
2019-01-24T07:04:16.640Z,1.58
2019-01-24T07:05:26.701Z,1.54
2019-01-24T07:06:36.746Z,1.64
2019-01-24T07:07:46.518Z,1.65
2019-01-24T07:08:56.043Z,1.68
2019-01-24T07:10:06.082Z,1.71
2019-01-24T07:11:15.865Z,1.58
2019-01-24T07:12:25.906Z,1.68
2019-01-24T07:13:35.721Z,1.71
2019-01-24T07:14:45.493Z,1.69
2019-01-24T07:15:55.016Z,1.65
2019-01-24T07:17:04.802Z,1.6
2019-01-24T07:18:14.845Z,1.6
2019-01-24T07:19:24.620Z,1.68
2019-01-24T07:20:34.456Z,1.61
2019-01-24T07:21:44.503Z,1.72
2019-01-24T07:22:54.545Z,1.71
2019-01-24T07:24:04.602Z,1.79
2019-01-24T07:25:14.378Z,1.71
2019-01-24T07:26:24.155Z,1.74
2019-01-24T07:27:34.192Z,1.71
2019-01-24T07:28:44.289Z,1.74
2019-01-24T07:29:54.351Z,1.78
2019-01-24T07:31:04.393Z,1.79
2019-01-24T07:32:14.501Z,1.65
2019-01-24T07:33:24.536Z,1.75
2019-01-24T07:34:34.331Z,1.93
2019-01-24T07:35:44.432Z,1.78
2019-01-24T07:36:54.477Z,1.84
2019-01-24T07:38:04.543Z,1.76
2019-01-24T07:39:14.328Z,1.83
2019-01-24T07:40:24.362Z,1.79
2019-01-24T07:41:34.163Z,1.87
2019-01-24T07:42:44.206Z,1.89
2019-01-24T07:43:54.145Z,1.92
2019-01-24T07:45:04.235Z,2.01
2019-01-24T07:46:14.043Z,2.02
2019-01-24T07:47:24.094Z,2.01
2019-01-24T07:48:34.134Z,2.13
2019-01-24T07:49:44.173Z,2.16
2019-01-24T07:50:54.216Z,2.13
2019-01-24T07:52:04.295Z,2.13
2019-01-24T07:53:14.341Z,2.13
2019-01-24T07:54:24.402Z,2.23
2019-01-24T07:55:34.443Z,2.18
2019-01-24T07:56:44.484Z,2.18
2019-01-24T07:57:54.524Z,2.16
2019-01-24T07:59:05.838Z,2.22
2019-01-24T08:00:16.184Z,2.24
2019-01-24T08:01:27.612Z,2.31
2019-01-24T08:02:37.425Z,2.33
2019-01-24T08:03:47.460Z,2.48
2019-01-24T08:04:57.492Z,2.41
2019-01-24T08:06:13.857Z,2.45
2019-01-24T08:07:23.942Z,2.48
2019-01-24T08:08:33.468Z,2.54
2019-01-24T08:09:43.032Z,2.62
2019-01-24T08:10:52.915Z,2.63
2019-01-24T08:12:02.702Z,2.7
2019-01-24T08:13:12.764Z,2.66
2019-01-24T08:14:22.552Z,2.76
2019-01-24T08:15:32.356Z,2.76
2019-01-24T08:16:42.452Z,2.72
2019-01-24T08:17:52.482Z,2.83
2019-01-24T08:19:02.279Z,2.83
2019-01-24T08:20:12.066Z,2.8
2019-01-24T08:21:21.840Z,2.78
2019-01-24T08:22:31.628Z,2.7
2019-01-24T08:23:41.665Z,2.78
2019-01-24T08:24:51.688Z,2.76
2019-01-24T08:26:01.477Z,2.8
2019-01-24T08:27:11.625Z,2.72
2019-01-24T08:28:21.666Z,2.73
2019-01-24T08:29:31.704Z,2.7
2019-01-24T08:30:41.539Z,2.72
2019-01-24T08:31:51.575Z,2.69
2019-01-24T08:33:01.694Z,2.62
2019-01-24T08:34:11.790Z,2.59
2019-01-24T08:35:21.835Z,2.6
2019-01-24T08:36:31.882Z,2.62
2019-01-24T08:37:41.941Z,2.62
2019-01-24T08:38:51.971Z,2.66
2019-01-24T08:40:02.109Z,2.62
2019-01-24T08:41:12.201Z,2.58
2019-01-24T08:42:22.250Z,2.45
2019-01-24T08:43:32.023Z,2.6
2019-01-24T08:44:42.079Z,2.65
2019-01-24T08:45:51.677Z,2.63
2019-01-24T08:47:01.723Z,2.63
2019-01-24T08:48:12.549Z,2.69
2019-01-24T08:49:22.595Z,2.6
2019-01-24T08:50:32.373Z,2.73
2019-01-24T08:51:42.150Z,2.77
2019-01-24T08:52:51.672Z,2.81
2019-01-24T08:54:01.713Z,2.78
2019-01-24T08:55:11.506Z,2.78
2019-01-24T08:56:21.548Z,2.58
2019-01-24T08:57:31.392Z,2.65
2019-01-24T08:58:41.185Z,2.63
2019-01-24T08:59:51.222Z,2.73
2019-01-24T09:01:01.292Z,2.59
2019-01-24T09:02:11.363Z,2.62
2019-01-24T09:03:21.221Z,2.63
2019-01-24T09:04:31.268Z,2.69
2019-01-24T09:05:41.300Z,2.62
2019-01-24T09:06:51.093Z,2.7
2019-01-24T09:08:03.195Z,2.62
2019-01-24T09:09:13.326Z,2.62
2019-01-24T09:10:23.122Z,2.63
2019-01-24T09:11:33.188Z,2.72
2019-01-24T09:12:43.003Z,2.72
2019-01-24T09:13:53.142Z,2.81
2019-01-24T09:15:03.489Z,2.91
2019-01-24T09:16:13.562Z,2.98
2019-01-24T09:17:23.607Z,2.96
2019-01-24T09:18:33.692Z,3.06
2019-01-24T09:19:43.744Z,3.09
2019-01-24T09:20:53.877Z,3.06
2019-01-24T09:22:04.650Z,3.16
2019-01-24T09:23:14.717Z,3.19
2019-01-24T09:24:25.038Z,3.23
2019-01-24T09:25:35.098Z,3.26
2019-01-24T09:26:45.273Z,3.43
2019-01-24T09:27:54.629Z,3.4
2019-01-24T09:29:06.254Z,3.54
2019-01-24T09:30:16.311Z,3.49
2019-01-24T09:31:26.119Z,3.67
2019-01-24T09:32:36.266Z,3.72
2019-01-24T09:33:46.335Z,3.75
2019-01-24T09:34:56.384Z,3.81
2019-01-24T09:36:06.483Z,3.78
2019-01-24T09:37:16.540Z,3.79
2019-01-24T09:38:26.576Z,3.84
2019-01-24T09:39:36.616Z,3.71
2019-01-24T09:40:46.671Z,3.58
2019-01-24T09:41:56.737Z,3.42
2019-01-24T09:43:08.431Z,3.39
2019-01-24T09:44:18.528Z,3.37
2019-01-24T09:45:28.584Z,3.39
2019-01-24T09:46:38.646Z,3.43
2019-01-24T09:47:48.709Z,3.43
2019-01-24T09:48:58.808Z,3.49
2019-01-24T09:50:10.573Z,3.49
2019-01-24T09:51:20.656Z,3.45
2019-01-24T09:52:30.484Z,3.42
2019-01-24T09:53:40.324Z,3.32
2019-01-24T09:54:50.133Z,3.3
2019-01-24T09:56:00.293Z,3.23
2019-01-24T09:57:09.859Z,3.19
2019-01-24T09:58:19.938Z,3.11
2019-01-24T09:59:29.813Z,2.93
2019-01-24T10:00:39.865Z,2.77
2019-01-24T10:01:49.457Z,2.78
2019-01-24T10:02:59.504Z,2.73
2019-01-24T10:04:09.561Z,2.76
2019-01-24T10:05:19.564Z,2.72
2019-01-24T10:06:36.042Z,2.7
2019-01-24T10:07:46.254Z,2.72
2019-01-24T10:08:55.808Z,2.66
2019-01-24T10:10:08.867Z,2.81
2019-01-24T10:11:23.434Z,2.77
2019-01-24T10:12:33.626Z,2.87
2019-01-24T10:13:43.711Z,3.02
2019-01-24T10:14:53.760Z,3.09
2019-01-24T10:16:03.583Z,2.96
2019-01-24T10:17:13.611Z,2.99
2019-01-24T10:18:26.602Z,3.01
2019-01-24T10:19:36.202Z,3.03
2019-01-24T10:20:46.011Z,2.95
2019-01-24T10:21:56.133Z,3.02
2019-01-24T10:23:06.184Z,3.02
2019-01-24T10:24:16.253Z,2.93
2019-01-24T10:25:26.400Z,2.99
2019-01-24T10:26:36.715Z,2.98
2019-01-24T10:27:46.794Z,2.96
2019-01-24T10:28:56.599Z,3.06
2019-01-24T10:30:08.703Z,3.17
2019-01-24T10:31:18.846Z,3.16
2019-01-24T10:32:28.902Z,3.35
2019-01-24T10:33:39.245Z,3.3
2019-01-24T10:34:49.044Z,3.46
2019-01-24T10:35:59.092Z,3.39
2019-01-24T10:37:08.899Z,3.35
2019-01-24T10:38:18.941Z,3.34
2019-01-24T10:39:29.021Z,3.39
2019-01-24T10:40:38.895Z,3.32
2019-01-24T10:41:49.027Z,3.37
2019-01-24T10:42:59.126Z,3.27
2019-01-24T10:44:09.191Z,3.26
2019-01-24T10:45:19.290Z,3.26
2019-01-24T10:46:29.353Z,3.34
2019-01-24T10:47:39.398Z,3.29
2019-01-24T10:48:49.566Z,3.45
2019-01-24T10:49:59.618Z,3.42
2019-01-24T10:51:09.416Z,3.51
2019-01-24T10:52:19.478Z,3.53
2019-01-24T10:53:29.527Z,3.51
2019-01-24T10:54:39.582Z,3.56
2019-01-24T10:55:50.343Z,3.42
2019-01-24T10:57:00.532Z,3.42
2019-01-24T10:58:10.705Z,3.42
2019-01-24T10:59:20.759Z,3.45
2019-01-24T11:00:30.809Z,3.4
2019-01-24T11:01:55.532Z,3.45
2019-01-24T11:03:05.332Z,3.49
2019-01-24T11:04:15.375Z,3.53
2019-01-24T11:05:25.440Z,3.42
2019-01-24T11:06:35.588Z,3.51
2019-01-24T11:07:46.222Z,3.51
2019-01-24T11:08:56.275Z,3.56
2019-01-24T11:10:10.194Z,3.6
2019-01-24T11:11:20.320Z,3.51
2019-01-24T11:12:30.413Z,3.66
2019-01-24T11:13:40.493Z,3.78
2019-01-24T11:14:50.072Z,3.78
2019-01-24T11:16:01.037Z,3.86
2019-01-24T11:17:11.164Z,3.86
2019-01-24T11:18:21.216Z,3.84
2019-01-24T11:19:31.339Z,3.82
2019-01-24T11:20:41.398Z,3.82
2019-01-24T11:21:51.450Z,3.82
2019-01-24T11:23:01.304Z,3.81
2019-01-24T11:24:11.426Z,3.79
2019-01-24T11:25:21.493Z,3.78
2019-01-24T11:26:31.605Z,3.71
2019-01-24T11:27:41.691Z,3.71
2019-01-24T11:28:51.253Z,3.74
2019-01-24T11:30:02.482Z,3.69
2019-01-24T11:31:12.561Z,3.78
2019-01-24T11:32:22.617Z,3.64
2019-01-24T11:33:32.742Z,3.6
2019-01-24T11:34:42.803Z,3.66
2019-01-24T11:35:52.620Z,3.66
2019-01-24T11:37:04.208Z,3.72
2019-01-24T11:38:14.078Z,3.69
2019-01-24T11:39:23.862Z,3.69
2019-01-24T11:40:33.918Z,3.72
2019-01-24T11:41:43.990Z,3.67
2019-01-24T11:42:54.032Z,3.69
2019-01-24T11:44:04.127Z,3.69
2019-01-24T11:45:14.171Z,3.75
2019-01-24T11:46:24.261Z,3.76
2019-01-24T11:47:34.299Z,3.89
2019-01-24T11:48:44.108Z,3.92
2019-01-24T11:49:53.948Z,4.02
2019-01-24T11:51:04.006Z,4
2019-01-24T11:52:28.685Z,4.02
2019-01-24T11:53:38.487Z,4.07
2019-01-24T11:54:48.542Z,4
2019-01-24T11:55:58.334Z,3.97
2019-01-24T11:57:08.733Z,3.94
2019-01-24T11:58:18.850Z,4.02
2019-01-24T11:59:28.654Z,4.04
2019-01-24T12:00:38.750Z,4.11
2019-01-24T12:01:49.128Z,4.1
2019-01-24T12:02:59.179Z,4.2
2019-01-24T12:04:09.568Z,4.12
2019-01-24T12:05:19.627Z,4.21
2019-01-24T12:06:29.525Z,4.12
2019-01-24T12:07:39.370Z,4.17
2019-01-24T12:08:49.211Z,4.22
2019-01-24T12:09:59.298Z,4.1
2019-01-24T12:11:09.370Z,3.96
2019-01-24T12:12:19.445Z,3.99
2019-01-24T12:13:29.573Z,3.86
2019-01-24T12:14:40.071Z,3.93
2019-01-24T12:15:50.460Z,4.04
2019-01-24T12:17:02.518Z,4.02
2019-01-24T12:18:12.560Z,4.02
2019-01-24T12:19:22.365Z,3.97
2019-01-24T12:20:32.449Z,3.97
2019-01-24T12:21:42.240Z,3.85
2019-01-24T12:22:52.337Z,3.81
2019-01-24T12:24:02.400Z,3.92
2019-01-24T12:25:12.439Z,3.84
2019-01-24T12:26:22.481Z,3.85
2019-01-24T12:27:32.268Z,3.86
2019-01-24T12:28:42.363Z,3.85
2019-01-24T12:29:52.433Z,3.85
2019-01-24T12:31:02.474Z,3.96
2019-01-24T12:32:12.322Z,3.92
2019-01-24T12:33:22.449Z,3.93
2019-01-24T12:34:32.508Z,3.94
2019-01-24T12:35:42.553Z,3.9
2019-01-24T12:36:52.615Z,4.02
2019-01-24T12:38:02.776Z,4.04
2019-01-24T12:39:12.831Z,4.18
2019-01-24T12:40:22.376Z,4.15
2019-01-24T12:41:32.450Z,4.2
2019-01-24T12:42:42.614Z,4.24
2019-01-24T12:43:52.719Z,4.15
2019-01-24T12:45:03.867Z,4.1
2019-01-24T12:46:13.896Z,4.08
2019-01-24T12:47:23.928Z,4.02
2019-01-24T12:48:33.988Z,4.03
2019-01-24T12:49:44.123Z,3.93
2019-01-24T12:50:54.147Z,3.9
2019-01-24T12:52:04.195Z,3.81
2019-01-24T12:53:14.242Z,3.81
2019-01-24T12:54:24.332Z,3.86
2019-01-24T12:55:34.113Z,3.82
2019-01-24T12:56:44.179Z,3.81
2019-01-24T12:57:54.212Z,3.67
2019-01-24T12:59:04.266Z,3.67
2019-01-24T13:00:14.315Z,3.67
2019-01-24T13:01:24.660Z,3.57
2019-01-24T13:02:34.712Z,3.53
2019-01-24T13:03:44.834Z,3.58
2019-01-24T13:04:54.889Z,3.67
2019-01-24T13:06:07.230Z,3.46
2019-01-24T13:07:23.367Z,3.48
2019-01-24T13:08:33.426Z,3.45
2019-01-24T13:09:43.506Z,3.48
2019-01-24T13:10:53.624Z,3.45
2019-01-24T13:12:04.473Z,3.4
2019-01-24T13:13:14.784Z,3.37
2019-01-24T13:14:24.597Z,3.37
2019-01-24T13:15:35.503Z,3.29
2019-01-24T13:16:45.663Z,3.19
2019-01-24T13:17:55.522Z,3.17
2019-01-24T13:19:05.687Z,3.08
2019-01-24T13:20:15.498Z,3.02
2019-01-24T13:21:25.351Z,2.87
2019-01-24T13:22:35.402Z,2.87
2019-01-24T13:23:45.786Z,2.77
2019-01-24T13:24:55.864Z,2.8
2019-01-24T13:26:08.041Z,2.77
2019-01-24T13:27:18.399Z,2.78
2019-01-24T13:28:28.487Z,2.81
2019-01-24T13:29:38.561Z,2.87
2019-01-24T13:30:48.623Z,2.81
2019-01-24T13:31:58.442Z,2.78
2019-01-24T13:33:09.489Z,2.77
2019-01-24T13:34:20.254Z,2.84
2019-01-24T13:35:30.338Z,2.72
2019-01-24T13:36:40.456Z,2.66
2019-01-24T13:37:50.550Z,2.73
2019-01-24T13:39:00.373Z,2.72
2019-01-24T13:40:10.560Z,2.63
2019-01-24T13:41:20.665Z,2.62
2019-01-24T13:42:30.482Z,2.65
2019-01-24T13:43:40.267Z,2.67
2019-01-24T13:44:50.269Z,2.55
2019-01-24T13:45:59.807Z,2.47
2019-01-24T13:47:09.915Z,2.54
2019-01-24T13:48:19.713Z,2.51
2019-01-24T13:49:29.781Z,2.42
2019-01-24T13:50:39.568Z,2.36
2019-01-24T13:51:49.382Z,2.38
2019-01-24T13:52:59.468Z,2.3
2019-01-24T13:54:09.633Z,2.38
2019-01-24T13:55:18.942Z,2.4
2019-01-24T13:56:28.981Z,2.38
2019-01-24T13:57:38.603Z,2.29
2019-01-24T13:58:49.134Z,2.31
2019-01-24T13:59:59.219Z,2.3
2019-01-24T14:01:11.836Z,2.33
2019-01-24T14:02:21.637Z,2.33
2019-01-24T14:03:31.431Z,2.23
2019-01-24T14:04:47.530Z,2.2
2019-01-24T14:05:57.602Z,2.2
2019-01-24T14:07:07.760Z,2.22
2019-01-24T14:08:17.806Z,2.13
2019-01-24T14:09:27.875Z,2.18
2019-01-24T14:10:37.989Z,2.15
2019-01-24T14:11:48.083Z,2.12
2019-01-24T14:12:58.362Z,2.2
2019-01-24T14:14:08.454Z,2.16
2019-01-24T14:15:18.238Z,2.2
2019-01-24T14:16:28.347Z,2.23
2019-01-24T14:17:38.423Z,2.16
2019-01-24T14:18:48.491Z,2.24
2019-01-24T14:19:58.289Z,2.18
2019-01-24T14:21:08.344Z,2.13
2019-01-24T14:22:18.499Z,2.02
2019-01-24T14:23:28.583Z,2.08
2019-01-24T14:24:38.639Z,2.13
2019-01-24T14:25:48.703Z,2.22
2019-01-24T14:26:58.738Z,2.13
2019-01-24T14:28:08.607Z,2.18
2019-01-24T14:29:18.649Z,2.22
2019-01-24T14:30:28.764Z,2.13
2019-01-24T14:31:38.834Z,2.15
2019-01-24T14:32:48.905Z,2.12
2019-01-24T14:33:59.002Z,2.06
2019-01-24T14:35:09.052Z,2.05
2019-01-24T14:36:25.092Z,1.94
2019-01-24T14:37:39.720Z,2.06
2019-01-24T14:38:49.718Z,1.98
2019-01-24T14:39:59.974Z,1.98
2019-01-24T14:41:10.794Z,1.94
2019-01-24T14:42:20.849Z,1.9
2019-01-24T14:43:30.906Z,1.93
2019-01-24T14:44:40.800Z,1.93
2019-01-24T14:45:50.873Z,1.93
2019-01-24T14:47:00.979Z,1.9
2019-01-24T14:48:11.055Z,1.94
2019-01-24T14:49:22.209Z,1.94
2019-01-24T14:50:31.861Z,1.97
2019-01-24T14:51:41.923Z,1.98
2019-01-24T14:52:51.981Z,2.02
2019-01-24T14:54:02.044Z,2.02
2019-01-24T14:55:12.095Z,1.94
2019-01-24T14:56:21.908Z,1.87
2019-01-24T14:57:31.734Z,1.86
2019-01-24T14:58:41.802Z,1.92
2019-01-24T14:59:51.853Z,1.84
2019-01-24T15:01:02.168Z,1.86
2019-01-24T15:02:12.272Z,1.75
2019-01-24T15:03:22.342Z,1.79
2019-01-24T15:04:32.412Z,1.72
2019-01-24T15:05:42.479Z,1.75
2019-01-24T15:06:52.543Z,1.89
2019-01-24T15:08:05.723Z,1.71
2019-01-24T15:09:15.578Z,1.84
2019-01-24T15:10:25.412Z,1.86
2019-01-24T15:11:35.735Z,1.72
2019-01-24T15:12:45.626Z,1.92
2019-01-24T15:13:55.441Z,1.74
2019-01-24T15:15:05.591Z,1.75
2019-01-24T15:16:15.762Z,1.89
2019-01-24T15:17:25.559Z,1.84
2019-01-24T15:18:36.070Z,1.83
2019-01-24T15:19:46.139Z,1.83
2019-01-24T15:20:56.027Z,1.86
2019-01-24T15:22:06.544Z,1.89
2019-01-24T15:23:16.679Z,1.86
2019-01-24T15:24:26.726Z,1.83
2019-01-24T15:25:36.871Z,1.79
2019-01-24T15:26:46.942Z,1.82
2019-01-24T15:27:57.042Z,1.82
2019-01-24T15:29:07.941Z,1.83
2019-01-24T15:30:17.751Z,1.71
2019-01-24T15:31:27.871Z,1.86
2019-01-24T15:32:37.968Z,1.78
2019-01-24T15:33:48.051Z,1.76
2019-01-24T15:34:57.861Z,1.74
2019-01-24T15:36:10.371Z,1.74
2019-01-24T15:37:20.167Z,1.66
2019-01-24T15:38:30.215Z,1.69
2019-01-24T15:39:40.019Z,1.65
2019-01-24T15:40:49.868Z,1.69
2019-01-24T15:41:59.926Z,1.61
2019-01-24T15:43:10.004Z,1.64
2019-01-24T15:44:20.078Z,1.65
2019-01-24T15:45:30.152Z,1.61
2019-01-24T15:46:39.990Z,1.65
2019-01-24T15:47:50.073Z,1.57
2019-01-24T15:49:00.168Z,1.64
2019-01-24T15:50:10.242Z,1.64
2019-01-24T15:51:20.319Z,1.72
2019-01-24T15:52:36.415Z,1.69
2019-01-24T15:53:46.495Z,1.71
2019-01-24T15:54:56.552Z,1.72
2019-01-24T15:56:06.582Z,1.64
2019-01-24T15:57:16.407Z,1.74
2019-01-24T15:58:26.505Z,1.64
2019-01-24T15:59:36.561Z,1.53
2019-01-24T16:00:46.646Z,1.58
2019-01-24T16:01:56.717Z,1.69
2019-01-24T16:03:06.835Z,1.66
2019-01-24T16:04:22.317Z,1.65
2019-01-24T16:05:32.398Z,1.71
2019-01-24T16:06:42.187Z,1.72
2019-01-24T16:07:52.246Z,1.6